• Join FlightAware (Why Join?)
  • Login
  • US Flag 
02:38AM EDT


 

Airport Tracker/Info


-or-


 

Live Flight TrackerFlight Track Log ✈ CES5388 ✈ 17-Jul-2013 ✈ ZGKL / KWL - ZSOF / HFE

Flight Track Log - Related Links

Times and Time Zones

All times are in EDT time to prevent confusion due to time zone crossing. See the CES5388 flight status page for this flight to view local times or setup timezone preferences in your user account.

Time Position Orientation Groundspeed Altitude Reporting Facility
EDT Latitude Longitude Course Direction KTS MPH feet Rate Location/Type
01:40PM 25.7250 110.5559 43° Northeast  Level Estimated
01:41PM 25.7973 110.6300 43° Northeast  Level Estimated
01:42PM 25.8695 110.7043 43° Northeast  Level Estimated
01:43PM 25.9417 110.7786 43° Northeast  Level Estimated
01:44PM 26.0138 110.8531 43° Northeast  Level Estimated
01:45PM 26.0859 110.9276 43° Northeast  Level Estimated
01:46PM 26.1580 111.0022 43° Northeast  Level Estimated
01:47PM 26.2300 111.0770 43° Northeast  Level Estimated
01:48PM 26.3020 111.1518 43° Northeast  Level Estimated
01:49PM 26.3740 111.2267 43° Northeast  Level Estimated
01:50PM 26.4459 111.3017 43° Northeast  Level Estimated
01:51PM 26.5178 111.3767 43° Northeast  Level Estimated
01:52PM 26.5896 111.4519 43° Northeast  Level Estimated
01:53PM 26.6614 111.5272 43° Northeast  Level Estimated
01:54PM 26.7332 111.6026 43° Northeast  Level Estimated
01:55PM 26.8049 111.6780 43° Northeast  Level Estimated
01:56PM 26.8766 111.7536 43° Northeast  Level Estimated
01:57PM 26.9482 111.8293 43° Northeast  Level Estimated
01:58PM 27.0198 111.9050 43° Northeast  Level Estimated
01:59PM 27.0914 111.9809 43° Northeast  Level Estimated
02:00PM 27.1629 112.0568 43° Northeast  Level Estimated
02:01PM 27.2344 112.1329 43° Northeast  Level Estimated
02:02PM 27.3058 112.2090 43° Northeast  Level Estimated
02:03PM 27.3772 112.2852 43° Northeast  Level Estimated
02:04PM 27.4486 112.3616 44° Northeast  Level Estimated
02:05PM 27.5199 112.4380 44° Northeast  Level Estimated
02:06PM 27.5912 112.5145 44° Northeast  Level Estimated
02:07PM 27.6624 112.5912 44° Northeast  Level Estimated
02:08PM 27.7336 112.6679 44° Northeast  Level Estimated
02:09PM 27.8047 112.7448 44° Northeast  Level Estimated
02:10PM 27.8758 112.8217 44° Northeast  Level Estimated
02:11PM 27.9469 112.8988 44° Northeast  Level Estimated
02:12PM 28.0179 112.9759 44° Northeast  Level Estimated
02:13PM 28.0889 113.0531 44° Northeast  Level Estimated
02:14PM 28.1598 113.1305 44° Northeast  Level Estimated
02:15PM 28.2307 113.2079 44° Northeast  Level Estimated
02:16PM 28.3015 113.2855 44° Northeast  Level Estimated
02:17PM 28.3723 113.3631 44° Northeast  Level Estimated
02:18PM 28.4431 113.4409 44° Northeast  Level Estimated
02:19PM 28.5138 113.5187 44° Northeast  Level Estimated
02:20PM 28.5844 113.5967 44° Northeast  Level Estimated
02:21PM 28.6550 113.6748 44° Northeast  Level Estimated
02:22PM 28.7256 113.7529 44° Northeast  Level Estimated
02:23PM 28.7962 113.8312 44° Northeast  Level Estimated
02:24PM 28.8666 113.9096 44° Northeast  Level Estimated
02:25PM 28.9371 113.9881 44° Northeast  Level Estimated
02:26PM 29.0075 114.0667 44° Northeast  Level Estimated
02:27PM 29.0778 114.1454 44° Northeast  Level Estimated
02:28PM 29.1481 114.2242 44° Northeast  Level Estimated
02:29PM 29.2184 114.3031 44° Northeast  Level Estimated
02:30PM 29.2886 114.3822 44° Northeast  Level Estimated
02:31PM 29.3587 114.4613 45° Northeast  Level Estimated
02:32PM 29.4289 114.5406 45° Northeast  Level Estimated
02:33PM 29.4989 114.6199 45° Northeast  Level Estimated
02:34PM 29.5690 114.6994 45° Northeast  Level Estimated
02:35PM 29.6389 114.7790 45° Northeast  Level Estimated
02:36PM 29.7089 114.8587 45° Northeast  Level Estimated
02:37PM 29.7787 114.9385 45° Northeast  Level Estimated
02:38PM 29.8486 115.0184 45° Northeast  Level Estimated
02:39PM 29.9183 115.0984 45° Northeast  Level Estimated
02:40PM 29.9881 115.1785 45° Northeast  Level Estimated
02:41PM 30.0578 115.2588 45° Northeast  Level Estimated
02:42PM 30.1274 115.3391 45° Northeast  Level Estimated
02:43PM 30.1970 115.4196 45° Northeast  Level Estimated
02:44PM 30.2665 115.5002 45° Northeast  Level Estimated
02:45PM 30.3360 115.5809 45° Northeast  Level Estimated
02:46PM 30.4055 115.6617 45° Northeast  Level Estimated
02:47PM 30.4749 115.7426 45° Northeast  Level Estimated
02:48PM 30.5442 115.8237 45° Northeast  Level Estimated
02:49PM 30.6135 115.9048 45° Northeast  Level Estimated
02:50PM 30.6827 115.9861 45° Northeast  Level Estimated
02:51PM 30.7519 116.0675 45° Northeast  Level Estimated
02:52PM 30.8211 116.1490 45° Northeast  Level Estimated
02:53PM 30.9079 116.2516 45° Northeast  Level Estimated
02:54PM 30.9946 116.3544 45° Northeast  Level Estimated
02:55PM 31.0813 116.4574 45° Northeast  Level Estimated
02:56PM 31.1678 116.5606 46° Northeast  Level Estimated
02:57PM 31.2543 116.6639 46° Northeast  Level Estimated
02:58PM 31.3407 116.7675 46° Northeast  Level Estimated
02:59PM 31.4271 116.8712 46° Northeast  Level Estimated
03:00PM 31.5133 116.9752 46° Northeast  Level Estimated
03:01PM 31.5995 117.0793 46° Northeast  Level Estimated
03:02PM 31.6855 117.1836 46° Northeast  Level Estimated
03:03PM 31.7715 117.2881 46° Northeast  Level Estimated